Antioch, Nebraska
Current Conditions -  °F | °C
As of 7:53 AM on Sunday 21 Dec 2014 (Local Time) from KAIA Reporting Station
Clear Clear  
Wind Chill: 23°   Ceiling: Unl
Heat Index: 32°   Visibility: 10mi
Dew Point: 22°   Wind: 13mph
Humidity: 66%   Direction: 210°SSW
Pressure: 29.6"   Gusts: NA
Location:  42.1734°N, 102.461°W
Report Text: KAIA 211453Z AUTO 21011KT 10SM CLR 00/M06 A2960 RMK AO2 SLP051 T00001056 58026
Loading
Personal Weather Stations






























Interactive Weather Map New forecast layout! Learn more

10-Day Weather Forecast

Advertisements
Track Severe Weather on mobile